Time;durP1;ratioP1;P1;durP2;ratioP2;P2;SDS_P1;SDS_P2;PMS_P1;PMS_P2;Temp;Humidity;BMP_temperature;BMP_pressure;BME280_temperature;BME280_humidity;BME280_pressure;Samples;Min_cycle;Max_cycle;Signal;HPM_P1;HPM_P2
2023/04/26 00:01:31;;;;;;;3.78;1.60;;;3.80;99.90;;;;;;5136735;27;20119;-71
2023/04/26 00:03:57;;;;;;;3.90;1.58;;;3.90;99.90;;;;;;5144494;27;20481;-72
2023/04/26 00:06:23;;;;;;;4.30;1.30;;;3.90;99.90;;;;;;5140979;27;20050;-71
2023/04/26 00:08:49;;;;;;;6.57;1.60;;;3.90;99.90;;;;;;5130718;27;20509;-71
2023/04/26 00:11:14;;;;;;;3.50;1.20;;;3.90;99.90;;;;;;5142524;27;20043;-72
2023/04/26 00:13:40;;;;;;;4.35;1.48;;;3.90;99.90;;;;;;5138867;27;20118;-72
2023/04/26 00:16:06;;;;;;;4.30;2.22;;;3.90;99.90;;;;;;5144629;27;20039;-72
2023/04/26 00:18:32;;;;;;;2.10;1.10;;;4.00;99.90;;;;;;5151006;27;20057;-72
2023/04/26 00:20:57;;;;;;;5.88;1.40;;;4.00;99.90;;;;;;5143539;27;20043;-71
2023/04/26 00:23:23;;;;;;;3.10;1.25;;;4.10;99.90;;;;;;5138137;27;20085;-71
2023/04/26 00:25:49;;;;;;;3.03;1.30;;;4.20;99.90;;;;;;5123735;27;20091;-72
2023/04/26 00:28:15;;;;;;;2.30;1.10;;;4.20;99.90;;;;;;5147964;27;20062;-73
2023/04/26 00:30:46;;;;;;;4.68;1.27;;;4.30;99.90;;;;;;5136877;27;20047;-72
2023/04/26 00:33:12;;;;;;;6.63;1.40;;;4.30;99.90;;;;;;5119313;27;20047;-72
2023/04/26 00:35:38;;;;;;;1.40;0.88;;;4.30;99.90;;;;;;5118981;27;20056;-71
2023/04/26 00:38:03;;;;;;;2.83;1.20;;;4.20;99.90;;;;;;5150583;27;20469;-72
2023/04/26 00:40:30;;;;;;;4.22;1.33;;;4.20;99.90;;;;;;5132628;27;20034;-71
2023/04/26 00:42:56;;;;;;;;;;;4.20;99.90;;;;;;5130313;27;20362;-72
2023/04/26 00:45:22;;;;;;;3.30;1.25;;;4.20;99.90;;;;;;5130538;27;20321;-72
2023/04/26 00:47:48;;;;;;;6.40;1.75;;;4.20;99.90;;;;;;5136751;27;20129;-71
2023/04/26 00:50:14;;;;;;;3.90;1.42;;;4.20;99.90;;;;;;5144282;27;20088;-72
2023/04/26 00:52:40;;;;;;;2.88;1.20;;;4.20;99.90;;;;;;5147521;27;20125;-72
2023/04/26 00:55:07;;;;;;;3.20;1.40;;;4.10;99.90;;;;;;5130303;27;20126;-72
2023/04/26 00:57:32;;;;;;;2.33;1.25;;;4.20;99.90;;;;;;5146550;27;20485;-72
2023/04/26 00:59:58;;;;;;;2.28;1.00;;;4.20;99.90;;;;;;5151561;27;20080;-73
2023/04/26 01:02:25;;;;;;;2.67;1.17;;;4.20;99.90;;;;;;5119186;27;20039;-72
2023/04/26 01:04:51;;;;;;;5.22;1.60;;;4.20;99.90;;;;;;5147493;27;20126;-73
2023/04/26 01:07:17;;;;;;;2.83;1.25;;;4.20;99.90;;;;;;5135474;27;20137;-73
2023/04/26 01:09:43;;;;;;;5.00;1.83;;;4.10;99.90;;;;;;5138378;27;20104;-72
2023/04/26 01:12:10;;;;;;;3.78;1.23;;;4.10;99.90;;;;;;5142277;27;20514;-72
2023/04/26 01:14:38;;;;;;;2.88;1.08;;;4.00;99.90;;;;;;5124280;27;20043;-72
2023/04/26 01:17:04;;;;;;;4.82;1.20;;;3.90;99.90;;;;;;5138061;27;20566;-72
2023/04/26 01:19:31;;;;;;;4.82;1.50;;;3.80;99.90;;;;;;5139172;27;20074;-72
2023/04/26 01:21:57;;;;;;;2.85;1.20;;;3.80;99.90;;;;;;5123166;27;20043;-72
2023/04/26 01:24:22;;;;;;;3.25;1.45;;;3.70;99.90;;;;;;5144494;27;20558;-72
2023/04/26 01:26:48;;;;;;;4.55;1.40;;;3.70;99.90;;;;;;5142434;27;20413;-72
2023/04/26 01:29:19;;;;;;;3.47;1.45;;;3.70;99.90;;;;;;5136380;27;20072;-72
2023/04/26 01:31:46;;;;;;;4.32;2.08;;;3.70;99.90;;;;;;5127396;27;20106;-72
2023/04/26 01:34:13;;;;;;;2.40;1.30;;;3.60;99.90;;;;;;5134322;27;20034;-72
2023/04/26 01:36:38;;;;;;;4.00;1.63;;;3.60;99.90;;;;;;5150138;27;20054;-72
2023/04/26 01:39:04;;;;;;;4.00;1.30;;;3.60;99.90;;;;;;5140528;27;20394;-72
2023/04/26 01:41:31;;;;;;;5.00;1.30;;;3.50;99.90;;;;;;5134756;27;20079;-72
2023/04/26 01:43:57;;;;;;;2.67;1.00;;;3.50;99.90;;;;;;5144091;27;20050;-72
2023/04/26 01:46:22;;;;;;;2.42;0.90;;;3.50;99.90;;;;;;5140051;27;20589;-72
2023/04/26 01:48:48;;;;;;;1.70;0.80;;;3.50;99.90;;;;;;5116020;27;20039;-72
2023/04/26 01:51:14;;;;;;;5.13;1.25;;;3.50;99.90;;;;;;5122012;27;20077;-72
2023/04/26 01:53:40;;;;;;;2.47;1.02;;;3.50;99.90;;;;;;5141597;27;20423;-72
2023/04/26 01:56:06;;;;;;;2.88;1.02;;;3.50;99.90;;;;;;5149852;27;20544;-72
2023/04/26 01:58:31;;;;;;;1.88;0.85;;;3.50;99.90;;;;;;5124040;27;20050;-72
2023/04/26 02:01:05;;;;;;;1.88;0.85;;;3.40;99.90;;;;;;5133007;27;20073;-72
2023/04/26 02:03:30;;;;;;;3.33;0.98;;;3.40;99.90;;;;;;5138253;27;20070;-72
2023/04/26 02:05:56;;;;;;;3.58;0.80;;;3.40;99.90;;;;;;5132974;27;20494;-72
2023/04/26 02:08:22;;;;;;;3.55;1.13;;;3.50;99.90;;;;;;5142198;27;20054;-72
2023/04/26 02:10:48;;;;;;;9.05;1.85;;;3.60;99.90;;;;;;5135111;27;20090;-72
2023/04/26 02:13:13;;;;;;;5.05;1.30;;;3.70;99.90;;;;;;5122409;27;20046;-72
2023/04/26 02:15:39;;;;;;;2.08;1.15;;;3.80;99.90;;;;;;5134495;27;20047;-72
2023/04/26 02:18:05;;;;;;;4.72;1.30;;;4.00;99.90;;;;;;5142258;27;20406;-72
2023/04/26 02:20:31;;;;;;;3.65;1.38;;;4.10;99.90;;;;;;5116544;27;20154;-72
2023/04/26 02:22:57;;;;;;;2.22;1.00;;;4.10;99.90;;;;;;5117799;27;20130;-72
2023/04/26 02:25:23;;;;;;;3.65;1.40;;;4.00;99.90;;;;;;5152919;27;20542;-72
2023/04/26 02:27:49;;;;;;;4.88;1.25;;;4.00;99.90;;;;;;5150760;27;20503;-72
2023/04/26 02:30:15;;;;;;;5.90;1.35;;;3.90;99.90;;;;;;5115971;27;20371;-72
2023/04/26 02:32:41;;;;;;;4.05;1.15;;;3.90;99.90;;;;;;5143459;27;20043;-72
2023/04/26 02:35:07;;;;;;;3.47;1.23;;;3.80;99.90;;;;;;5114955;27;20058;-72
2023/04/26 02:37:33;;;;;;;5.32;1.20;;;3.70;99.90;;;;;;5134203;27;20134;-72
2023/04/26 02:39:59;;;;;;;2.40;1.33;;;3.70;99.90;;;;;;5134831;27;20121;-72
2023/04/26 02:42:25;;;;;;;4.75;1.42;;;3.80;99.90;;;;;;5134185;27;20184;-72
2023/04/26 02:44:50;;;;;;;3.88;1.35;;;3.70;99.90;;;;;;5116513;27;20039;-72
2023/04/26 02:47:16;;;;;;;2.25;1.20;;;3.70;99.90;;;;;;5133891;27;20051;-72
2023/04/26 02:49:42;;;;;;;2.88;1.35;;;3.70;99.90;;;;;;5134785;27;20035;-72
2023/04/26 02:52:08;;;;;;;3.60;1.40;;;3.70;99.90;;;;;;5151479;27;20500;-72
2023/04/26 02:54:33;;;;;;;3.17;1.08;;;3.60;99.90;;;;;;5138688;27;20038;-72
2023/04/26 02:56:59;;;;;;;4.78;1.02;;;3.60;99.90;;;;;;5143944;27;20050;-72
2023/04/26 02:59:25;;;;;;;3.40;1.00;;;3.60;99.90;;;;;;5133043;27;20139;-72
2023/04/26 03:01:51;;;;;;;4.53;1.58;;;3.60;99.90;;;;;;5152598;27;20107;-72
2023/04/26 03:04:17;;;;;;;3.03;1.20;;;3.60;99.90;;;;;;5151295;27;20076;-72
2023/04/26 03:06:43;;;;;;;2.72;1.13;;;3.60;99.90;;;;;;5133137;27;20146;-72
2023/04/26 03:09:08;;;;;;;4.55;1.30;;;3.70;99.90;;;;;;5146755;27;20042;-72
2023/04/26 03:11:34;;;;;;;2.38;1.08;;;3.70;99.90;;;;;;5129080;27;20038;-72
2023/04/26 03:14:00;;;;;;;2.70;0.98;;;3.80;99.90;;;;;;5132430;27;20510;-72
2023/04/26 03:16:27;;;;;;;3.17;1.00;;;3.80;99.90;;;;;;5139575;27;20049;-72
2023/04/26 03:18:53;;;;;;;3.90;1.50;;;3.80;99.90;;;;;;5145883;27;20504;-72
2023/04/26 03:21:19;;;;;;;5.95;1.40;;;3.90;99.90;;;;;;5152600;27;20043;-72
2023/04/26 03:23:45;;;;;;;3.85;1.33;;;3.90;99.90;;;;;;5134320;27;20037;-72
2023/04/26 03:26:11;;;;;;;3.38;1.30;;;3.90;99.90;;;;;;5139343;27;20126;-72
2023/04/26 03:28:37;;;;;;;4.03;1.20;;;3.90;99.90;;;;;;5142342;27;20409;-72
2023/04/26 03:31:03;;;;;;;5.45;1.60;;;4.00;99.90;;;;;;5152701;27;20051;-72
2023/04/26 03:33:30;;;;;;;2.88;1.40;;;4.10;99.90;;;;;;5147896;27;20386;-72
2023/04/26 03:35:56;;;;;;;3.30;1.40;;;4.10;99.90;;;;;;5152547;27;20050;-72
2023/04/26 03:38:22;;;;;;;4.38;1.40;;;4.20;99.90;;;;;;5147729;27;20050;-72
2023/04/26 03:40:48;;;;;;;4.00;1.50;;;4.30;99.90;;;;;;5152030;27;20099;-72
2023/04/26 03:43:14;;;;;;;5.18;1.20;;;4.30;99.90;;;;;;5152636;27;20047;-72
2023/04/26 03:45:39;;;;;;;2.78;1.13;;;4.30;99.90;;;;;;5151165;27;20553;-72
2023/04/26 03:48:05;;;;;;;4.43;1.33;;;4.40;99.90;;;;;;5132124;27;20047;-72
2023/04/26 03:50:31;;;;;;;4.18;1.20;;;4.40;99.90;;;;;;5132353;27;20034;-72
2023/04/26 03:52:57;;;;;;;5.43;1.20;;;4.40;99.90;;;;;;5132918;27;20111;-72
2023/04/26 03:55:23;;;;;;;3.35;1.30;;;4.30;99.90;;;;;;5151707;27;20147;-72
2023/04/26 03:57:48;;;;;;;4.07;1.20;;;4.30;99.90;;;;;;5133873;27;20053;-72
2023/04/26 04:00:14;;;;;;;2.70;1.10;;;4.30;99.90;;;;;;5131192;27;20035;-72
2023/04/26 04:02:41;;;;;;;4.88;1.40;;;4.20;99.90;;;;;;5131878;27;20035;-72
2023/04/26 04:05:07;;;;;;;4.40;1.38;;;4.30;99.90;;;;;;5142789;27;20397;-72
2023/04/26 04:07:33;;;;;;;4.25;1.40;;;4.30;99.90;;;;;;5130798;27;20047;-72
2023/04/26 04:10:00;;;;;;;4.15;1.52;;;4.30;99.90;;;;;;5125126;27;20121;-72
2023/04/26 04:12:26;;;;;;;5.18;1.50;;;4.40;99.90;;;;;;5151700;27;20186;-72
2023/04/26 04:14:51;;;;;;;5.88;1.48;;;4.40;99.90;;;;;;5146358;27;20039;-72
2023/04/26 04:17:18;;;;;;;3.08;1.20;;;4.40;99.90;;;;;;5147009;27;20046;-72
2023/04/26 04:19:44;;;;;;;3.40;1.35;;;4.40;99.90;;;;;;5132715;27;20039;-72
2023/04/26 04:22:10;;;;;;;4.65;1.35;;;4.40;99.90;;;;;;5137959;27;20034;-72
2023/04/26 04:24:36;;;;;;;5.25;1.20;;;4.40;99.90;;;;;;5147915;27;20038;-72
2023/04/26 04:27:02;;;;;;;6.47;1.40;;;4.30;99.90;;;;;;5131559;27;21263;-71
2023/04/26 04:29:28;;;;;;;4.07;1.27;;;4.30;99.90;;;;;;5146204;27;20042;-71
2023/04/26 04:31:55;;;;;;;5.43;1.42;;;4.20;99.90;;;;;;5145575;27;20053;-71
2023/04/26 04:34:22;;;;;;;4.70;1.45;;;4.10;99.90;;;;;;5141634;27;20043;-71
2023/04/26 04:36:49;;;;;;;4.45;1.38;;;4.10;99.90;;;;;;5136666;27;20058;-71
2023/04/26 04:39:16;;;;;;;2.55;1.10;;;4.10;99.90;;;;;;5137202;27;20031;-70
2023/04/26 04:41:48;;;;;;;2.33;1.10;;;4.10;99.90;;;;;;5137645;27;20073;-70
2023/04/26 04:44:15;;;;;;;2.70;1.15;;;4.10;99.90;;;;;;5142117;27;20136;-70
2023/04/26 04:46:41;;;;;;;1.55;0.90;;;4.20;99.90;;;;;;5139292;27;20451;-70
2023/04/26 04:49:11;;;;;;;0.85;0.77;;;4.20;99.90;;;;;;5138043;27;20487;-69
2023/04/26 04:51:37;;;;;;;2.60;1.10;;;4.30;99.90;;;;;;5139619;27;20076;-70
2023/04/26 04:54:14;;;;;;;2.35;0.93;;;4.30;99.90;;;;;;5120759;27;20485;-69
2023/04/26 04:56:40;;;;;;;3.08;0.93;;;4.30;99.90;;;;;;5140695;27;20072;-70
2023/04/26 04:59:06;;;;;;;;;;;4.30;99.90;;;;;;5139430;27;20085;-70
2023/04/26 05:01:33;;;;;;;2.15;1.17;;;4.30;99.90;;;;;;5136246;27;19958;-70
2023/04/26 05:03:59;;;;;;;;;;;4.30;99.90;;;;;;5138445;27;20148;-70
2023/04/26 05:06:28;;;;;;;4.28;1.63;;;4.30;99.90;;;;;;5138052;27;20409;-70
2023/04/26 05:08:55;;;;;;;3.05;1.30;;;4.30;99.90;;;;;;5146275;27;20055;-70
2023/04/26 05:11:21;;;;;;;2.65;1.02;;;4.30;99.90;;;;;;5133334;27;20123;-70
2023/04/26 05:13:47;;;;;;;2.80;1.08;;;4.20;99.90;;;;;;5144146;27;20125;-70
2023/04/26 05:16:13;;;;;;;;;;;4.20;99.90;;;;;;5107844;27;20027;-70
2023/04/26 05:18:39;;;;;;;1.00;0.90;;;4.20;99.90;;;;;;5145305;27;19928;-71
2023/04/26 05:21:05;;;;;;;1.77;1.10;;;4.10;99.90;;;;;;5128080;27;20035;-70
2023/04/26 05:23:31;;;;;;;2.42;1.10;;;4.20;99.90;;;;;;5133460;27;20042;-71
2023/04/26 05:26:01;;;;;;;2.28;1.00;;;4.20;99.90;;;;;;5140734;27;20066;-71
2023/04/26 05:28:27;;;;;;;2.22;0.90;;;4.10;99.90;;;;;;5138315;27;20084;-71
2023/04/26 05:30:53;;;;;;;2.00;1.00;;;4.10;99.90;;;;;;5140417;27;20124;-71
2023/04/26 05:33:19;;;;;;;3.10;0.88;;;4.10;99.90;;;;;;5117822;27;20466;-71
2023/04/26 05:35:44;;;;;;;4.55;1.20;;;4.20;99.90;;;;;;5101307;27;20135;-71
2023/04/26 05:38:10;;;;;;;6.38;1.60;;;4.20;99.90;;;;;;5133723;27;20187;-71
2023/04/26 05:40:36;;;;;;;4.60;1.48;;;4.20;99.90;;;;;;5135010;27;20096;-70
2023/04/26 05:43:02;;;;;;;2.42;1.10;;;4.40;99.90;;;;;;5131725;27;20035;-70
2023/04/26 05:45:27;;;;;;;2.72;1.13;;;4.50;99.90;;;;;;5136893;27;20050;-71
2023/04/26 05:47:54;;;;;;;3.50;1.50;;;4.60;99.90;;;;;;5130174;27;20050;-70
2023/04/26 05:50:20;;;;;;;5.38;2.00;;;4.80;99.90;;;;;;5134059;27;20474;-70
2023/04/26 05:52:46;;;;;;;3.90;1.60;;;4.90;99.90;;;;;;5141105;27;20126;-71
2023/04/26 05:55:12;;;;;;;2.50;1.33;;;5.10;99.90;;;;;;5129378;27;20047;-71
2023/04/26 05:57:38;;;;;;;4.50;1.40;;;5.30;99.90;;;;;;5119675;27;20042;-71
2023/04/26 06:00:05;;;;;;;4.25;1.65;;;5.30;99.90;;;;;;5132920;27;20049;-71
2023/04/26 06:02:30;;;;;;;4.60;1.70;;;5.40;99.90;;;;;;5107786;27;20027;-71
2023/04/26 06:04:56;;;;;;;3.85;1.30;;;5.40;99.90;;;;;;5137132;27;20137;-71
2023/04/26 06:07:22;;;;;;;2.67;1.40;;;5.40;99.90;;;;;;5129501;27;20069;-70
2023/04/26 06:09:48;;;;;;;2.08;1.20;;;5.40;99.90;;;;;;5150256;27;20098;-71
2023/04/26 06:12:14;;;;;;;1.90;1.02;;;5.60;99.90;;;;;;5136457;27;20031;-71
2023/04/26 06:14:39;;;;;;;5.13;1.77;;;5.60;99.90;;;;;;5153553;27;20091;-71
2023/04/26 06:17:05;;;;;;;3.17;1.42;;;5.60;99.90;;;;;;5155077;27;20058;-71
2023/04/26 06:19:31;;;;;;;3.65;1.40;;;5.80;99.90;;;;;;5153592;27;20050;-71
2023/04/26 06:21:56;;;;;;;2.15;1.25;;;5.80;99.90;;;;;;5153727;27;20051;-71
2023/04/26 06:24:25;;;;;;;3.50;1.65;;;5.90;99.90;;;;;;5153575;27;20410;-71
2023/04/26 06:26:51;;;;;;;4.65;1.67;;;5.90;99.90;;;;;;5135693;27;20043;-71
2023/04/26 06:29:17;;;;;;;4.68;1.52;;;6.00;99.90;;;;;;5136245;27;20042;-71
2023/04/26 06:31:43;;;;;;;3.75;1.35;;;6.00;99.90;;;;;;5152901;27;20042;-71
2023/04/26 06:34:08;;;;;;;1.83;1.20;;;6.00;99.90;;;;;;5136226;27;20077;-71
2023/04/26 06:36:34;;;;;;;2.38;1.17;;;6.10;99.90;;;;;;5153515;27;20078;-71
2023/04/26 06:39:00;;;;;;;3.30;1.30;;;6.20;99.90;;;;;;5153594;27;20042;-71
2023/04/26 06:41:25;;;;;;;4.00;1.40;;;6.40;99.90;;;;;;5136256;27;20500;-71
2023/04/26 06:43:51;;;;;;;4.60;1.50;;;6.50;90.20;;;;;;5153448;27;20394;-71
2023/04/26 06:46:18;;;;;;;2.70;1.30;;;6.80;95.90;;;;;;5153193;27;20482;-71
2023/04/26 06:48:43;;;;;;;4.35;1.55;;;7.10;36.20;;;;;;5153087;27;20039;-72
2023/04/26 06:51:09;;;;;;;4.07;1.52;;;7.20;1.00;;;;;;5135764;27;20042;-71
2023/04/26 06:53:35;;;;;;;7.38;1.65;;;7.60;1.00;;;;;;5136084;27;20034;-71
2023/04/26 06:56:01;;;;;;;5.28;1.60;;;7.90;1.00;;;;;;5153131;27;20395;-72
2023/04/26 06:58:27;;;;;;;5.43;1.60;;;8.40;1.00;;;;;;5136259;27;20051;-73
2023/04/26 07:00:53;;;;;;;8.07;2.15;;;8.60;99.90;;;;;;5152724;27;20472;-72
2023/04/26 07:03:18;;;;;;;6.18;1.58;;;8.70;1.00;;;;;;5152777;27;20046;-72
2023/04/26 07:05:44;;;;;;;3.95;1.40;;;8.60;1.00;;;;;;5152893;27;20051;-72
2023/04/26 07:08:10;;;;;;;5.60;1.67;;;8.10;99.90;;;;;;5152552;27;20050;-72
2023/04/26 07:10:38;;;;;;;4.55;1.25;;;7.90;1.00;;;;;;5152729;27;20078;-72
2023/04/26 07:13:04;;;;;;;4.43;1.35;;;7.70;1.00;;;;;;5152813;27;20054;-72
2023/04/26 07:15:30;;;;;;;4.65;1.40;;;7.60;1.00;;;;;;5152449;27;20054;-72
2023/04/26 07:17:56;;;;;;;3.92;1.70;;;7.40;1.00;;;;;;5153893;27;20055;-73
2023/04/26 07:20:23;;;;;;;4.30;1.60;;;7.30;1.00;;;;;;5152427;27;20103;-73
2023/04/26 07:22:49;;;;;;;4.43;1.40;;;7.20;1.00;;;;;;5152279;27;20089;-73
2023/04/26 07:25:16;;;;;;;3.70;1.60;;;7.20;1.00;;;;;;5123671;27;20043;-72
2023/04/26 07:27:42;;;;;;;5.57;1.55;;;7.30;1.00;;;;;;5114525;27;20078;-72
2023/04/26 07:30:09;;;;;;;2.45;1.50;;;7.60;1.00;;;;;;5131592;27;20081;-72
2023/04/26 07:32:35;;;;;;;5.38;1.90;;;8.00;1.00;;;;;;5114592;27;20039;-72
2023/04/26 07:35:06;;;;;;;5.22;1.77;;;8.40;1.00;;;;;;5097557;27;20088;-73
2023/04/26 07:37:32;;;;;;;5.10;1.52;;;8.70;99.90;;;;;;5131310;27;20086;-72
2023/04/26 07:39:58;;;;;;;3.40;1.38;;;8.70;99.90;;;;;;5114201;27;20105;-73
2023/04/26 07:42:24;;;;;;;3.45;1.50;;;8.70;99.90;;;;;;5131865;27;20057;-72
2023/04/26 07:44:50;;;;;;;4.30;1.35;;;8.50;99.90;;;;;;5131222;27;20402;-72
2023/04/26 07:47:15;;;;;;;4.63;1.70;;;8.60;99.90;;;;;;5131548;27;20055;-73
2023/04/26 07:49:41;;;;;;;3.95;1.60;;;8.70;99.90;;;;;;5131480;27;20039;-73
2023/04/26 07:52:08;;;;;;;4.10;1.80;;;8.90;99.90;;;;;;5114272;27;20043;-72
2023/04/26 07:54:34;;;;;;;6.22;1.30;;;8.80;99.90;;;;;;5132597;27;20083;-72
2023/04/26 07:57:00;;;;;;;4.95;1.52;;;9.00;99.90;;;;;;5131456;27;20081;-73
2023/04/26 07:59:26;;;;;;;;;;;9.10;99.90;;;;;;5081019;27;20047;-72
2023/04/26 08:01:52;;;;;;;5.63;1.40;;;9.10;99.90;;;;;;5131218;27;19919;-72
2023/04/26 08:04:31;;;;;;;3.22;1.27;;;9.20;99.90;;;;;;5097129;27;20506;-72
2023/04/26 08:06:57;;;;;;;4.63;1.30;;;9.20;99.90;;;;;;5130675;27;20062;-72
2023/04/26 08:09:23;;;;;;;5.50;1.77;;;9.10;99.90;;;;;;5130720;27;20051;-73
2023/04/26 08:11:48;;;;;;;4.93;1.60;;;8.90;99.90;;;;;;5113863;27;20043;-72
2023/04/26 08:14:14;;;;;;;6.55;1.50;;;8.70;99.90;;;;;;5130947;27;20132;-72
2023/04/26 08:16:40;;;;;;;8.60;1.90;;;8.10;99.90;;;;;;5131033;27;20077;-73
2023/04/26 08:19:06;;;;;;;5.35;1.80;;;7.60;99.90;;;;;;5130727;27;20405;-73
2023/04/26 08:21:32;;;;;;;6.30;1.80;;;7.50;99.90;;;;;;5130439;27;20039;-72
2023/04/26 08:23:57;;;;;;;4.47;1.42;;;7.50;1.00;;;;;;5131909;27;20042;-72
2023/04/26 08:26:23;;;;;;;3.75;1.50;;;7.40;1.00;;;;;;5130324;27;20046;-73
2023/04/26 08:28:49;;;;;;;6.22;1.40;;;7.50;1.00;;;;;;5130329;27;20086;-73
2023/04/26 08:31:15;;;;;;;4.38;1.70;;;7.60;1.00;;;;;;5130627;27;20050;-73
2023/04/26 08:33:41;;;;;;;3.00;1.42;;;7.50;1.00;;;;;;5130165;27;20050;-72
2023/04/26 08:36:07;;;;;;;3.15;1.50;;;7.70;1.00;;;;;;5113472;27;20118;-72
2023/04/26 08:38:33;;;;;;;5.00;2.13;;;7.70;1.00;;;;;;5130552;27;20047;-73
2023/04/26 08:41:01;;;;;;;5.35;1.83;;;8.00;1.00;;;;;;5130558;27;20524;-72
2023/04/26 08:43:28;;;;;;;4.75;1.60;;;8.20;1.00;;;;;;5113273;27;20436;-73
2023/04/26 08:45:54;;;;;;;5.30;1.73;;;8.40;99.90;;;;;;5130251;27;20127;-72
2023/04/26 08:48:20;;;;;;;3.67;1.40;;;8.40;99.90;;;;;;5130116;27;20126;-72
2023/04/26 08:50:48;;;;;;;3.38;1.50;;;8.60;1.00;;;;;;5130085;27;20039;-73
2023/04/26 08:53:16;;;;;;;4.03;1.55;;;8.60;99.90;;;;;;5130018;27;20039;-72
2023/04/26 08:55:49;;;;;;;2.75;1.40;;;8.60;99.90;;;;;;5130051;27;20043;-72
2023/04/26 08:58:16;;;;;;;3.63;1.55;;;8.90;99.90;;;;;;5130152;27;20051;-73
2023/04/26 09:00:44;;;;;;;5.75;1.67;;;9.20;99.90;;;;;;5130039;27;20146;-73
2023/04/26 09:03:10;;;;;;;3.88;1.40;;;8.80;99.90;;;;;;5129921;27;20039;-71
2023/04/26 09:05:38;;;;;;;6.25;1.70;;;8.80;99.90;;;;;;5130147;27;20043;-73
2023/04/26 09:08:06;;;;;;;5.97;1.92;;;8.40;99.90;;;;;;5129514;27;20059;-71
2023/04/26 09:10:31;;;;;;;7.15;2.10;;;8.10;99.90;;;;;;5129675;27;20458;-71
2023/04/26 09:12:57;;;;;;;4.00;1.50;;;7.80;1.00;;;;;;5129868;27;20423;-71
2023/04/26 09:15:25;;;;;;;5.45;2.08;;;7.60;1.00;;;;;;5129997;27;20043;-72
2023/04/26 09:17:51;;;;;;;4.85;2.10;;;7.30;1.00;;;;;;5129846;27;20054;-72
2023/04/26 09:20:17;;;;;;;6.90;2.00;;;7.10;1.00;;;;;;5112980;28;20043;-72
2023/04/26 09:22:43;;;;;;;5.50;1.75;;;6.90;1.00;;;;;;5112671;28;20065;-72
2023/04/26 09:25:10;;;;;;;3.60;1.60;;;6.70;8.20;;;;;;5140254;27;20054;-71
2023/04/26 09:27:38;;;;;;;4.53;1.60;;;6.70;96.40;;;;;;5150549;27;20111;-72
2023/04/26 09:30:14;;;;;;;5.65;1.77;;;6.70;99.90;;;;;;5150195;27;20039;-72
2023/04/26 09:32:54;;;;;;;3.50;1.33;;;6.70;85.90;;;;;;5133284;27;20042;-72
2023/04/26 09:35:36;;;;;;;3.78;1.88;;;6.80;84.70;;;;;;5150221;27;20054;-72
2023/04/26 09:38:07;;;;;;;5.90;1.52;;;6.90;2.80;;;;;;5150106;27;20046;-72
2023/04/26 09:40:37;;;;;;;3.38;1.40;;;7.00;1.00;;;;;;5149915;27;20579;-72
2023/04/26 09:43:06;;;;;;;4.05;1.33;;;7.20;1.00;;;;;;5150158;27;20057;-72
2023/04/26 09:45:43;;;;;;;3.35;1.75;;;7.40;9.20;;;;;;5153056;27;20554;-72
2023/04/26 09:48:30;;;;;;;4.38;1.55;;;7.50;9.80;;;;;;5154168;27;20057;-72
2023/04/26 09:50:58;;;;;;;4.05;1.60;;;7.80;16.50;;;;;;5154421;27;20488;-72
2023/04/26 09:53:30;;;;;;;6.95;1.83;;;8.10;1.00;;;;;;5154284;27;20051;-71
2023/04/26 09:56:09;;;;;;;5.63;1.80;;;8.40;1.00;;;;;;5154056;27;20054;-72
2023/04/26 09:58:57;;;;;;;5.22;1.52;;;8.40;1.00;;;;;;5153895;27;20481;-71
2023/04/26 10:01:24;;;;;;;6.05;1.75;;;8.30;99.90;;;;;;5154108;27;20506;-71
2023/04/26 10:03:50;;;;;;;4.90;1.77;;;8.40;99.90;;;;;;5154115;27;20038;-71
2023/04/26 10:06:16;;;;;;;5.80;2.15;;;8.30;1.00;;;;;;5153672;27;20389;-71
2023/04/26 10:08:43;;;;;;;7.00;2.22;;;8.10;1.00;;;;;;5153628;27;20051;-72
2023/04/26 10:11:12;;;;;;;5.68;1.60;;;8.00;1.00;;;;;;5154250;27;20038;-72
2023/04/26 10:13:40;;;;;;;5.32;1.70;;;8.10;1.00;;;;;;5154298;27;20542;-71
2023/04/26 10:16:07;;;;;;;5.00;1.83;;;8.20;1.00;;;;;;5155060;27;20050;-72
2023/04/26 10:18:33;;;;;;;6.80;1.90;;;8.10;1.00;;;;;;5153532;27;20048;-71
2023/04/26 10:21:07;;;;;;;5.15;1.50;;;8.00;1.00;;;;;;5153484;27;20103;-72
2023/04/26 10:23:33;;;;;;;4.07;1.42;;;7.90;1.00;;;;;;5153729;27;20468;-72
2023/04/26 10:25:59;;;;;;;3.92;1.58;;;8.00;1.00;;;;;;5153337;27;20058;-72
2023/04/26 10:28:54;;;;;;;3.58;1.40;;;8.00;2.80;;;;;;5136058;27;20042;-72
2023/04/26 10:31:20;;;;;;;3.20;1.40;;;8.20;1.00;;;;;;5153314;27;20045;-72
2023/04/26 10:34:23;;;;;;;4.50;1.20;;;8.50;1.00;;;;;;5153453;27;20039;-72
2023/04/26 10:37:15;;;;;;;4.45;1.48;;;8.90;1.00;;;;;;5153114;27;20047;-72
2023/04/26 10:39:43;;;;;;;2.05;1.10;;;9.50;1.00;;;;;;5153308;27;20135;-72
2023/04/26 10:42:26;;;;;;;4.07;1.13;;;9.20;99.90;;;;;;5152962;27;20039;-72
2023/04/26 10:44:56;;;;;;;4.05;1.30;;;9.00;99.90;;;;;;5135955;27;20045;-72
2023/04/26 10:47:25;;;;;;;2.63;1.00;;;8.70;1.00;;;;;;5152891;27;20070;-72
2023/04/26 10:49:50;;;;;;;3.25;1.10;;;8.50;99.90;;;;;;5153026;27;20042;-71
2023/04/26 10:52:21;;;;;;;3.90;1.00;;;8.40;99.90;;;;;;5153135;27;20462;-71
2023/04/26 10:54:57;;;;;;;2.47;0.90;;;8.40;99.90;;;;;;5135466;27;20125;-72
2023/04/26 10:57:49;;;;;;;4.65;1.10;;;8.30;99.90;;;;;;5152568;27;20159;-72
2023/04/26 11:00:24;;;;;;;4.45;1.00;;;8.30;99.90;;;;;;5124870;27;20054;-71
2023/04/26 11:03:09;;;;;;;3.13;1.30;;;8.40;99.90;;;;;;5152809;27;20054;-72
2023/04/26 11:05:39;;;;;;;4.15;1.02;;;8.50;99.90;;;;;;5135392;27;20035;-71
2023/04/26 11:08:27;;;;;;;3.35;0.90;;;8.40;99.90;;;;;;5152339;27;20051;-71
2023/04/26 11:11:11;;;;;;;4.15;0.80;;;8.40;99.90;;;;;;5154282;27;20027;-72
2023/04/26 11:13:41;;;;;;;3.83;1.23;;;8.70;99.90;;;;;;5152661;27;20133;-71
2023/04/26 11:16:12;;;;;;;4.50;1.10;;;8.80;99.90;;;;;;5152220;27;20049;-73
2023/04/26 11:18:45;;;;;;;2.47;0.82;;;8.90;99.90;;;;;;5152496;27;20155;-72
2023/04/26 11:21:14;;;;;;;1.90;0.80;;;9.20;99.90;;;;;;5135078;27;20047;-72
2023/04/26 11:23:40;;;;;;;3.70;1.10;;;9.40;99.90;;;;;;5152686;27;20130;-72
2023/04/26 11:26:07;;;;;;;4.72;1.13;;;9.40;99.90;;;;;;5151953;27;20521;-72
2023/04/26 11:28:35;;;;;;;3.00;1.00;;;9.40;78.00;;;;;;5135097;27;20054;-72
2023/04/26 11:31:02;;;;;;;3.33;1.23;;;9.30;18.20;;;;;;5152337;27;20027;-73
2023/04/26 11:33:28;;;;;;;4.43;1.30;;;9.20;1.00;;;;;;5152810;27;20082;-73
2023/04/26 11:35:56;;;;;;;3.70;0.82;;;9.30;1.00;;;;;;5151893;27;20465;-73
2023/04/26 11:38:26;;;;;;;5.10;1.20;;;9.40;9.20;;;;;;5152356;27;20039;-73
2023/04/26 11:40:59;;;;;;;4.20;1.20;;;9.50;1.00;;;;;;5152089;27;20153;-72
2023/04/26 11:43:29;;;;;;;2.25;0.98;;;9.60;1.00;;;;;;5152224;27;20118;-72
2023/04/26 11:46:01;;;;;;;2.42;0.80;;;9.50;1.00;;;;;;5151910;27;20062;-72
2023/04/26 11:48:28;;;;;;;5.22;1.02;;;9.60;1.00;;;;;;5151797;27;20058;-73
2023/04/26 11:50:57;;;;;;;3.22;1.00;;;9.60;1.00;;;;;;5151765;27;20039;-73
2023/04/26 11:53:24;;;;;;;3.40;1.02;;;9.70;1.00;;;;;;5151702;27;20042;-73
2023/04/26 11:55:50;;;;;;;3.80;1.02;;;10.00;1.00;;;;;;5134787;27;20039;-73
2023/04/26 11:58:16;;;;;;;2.35;1.00;;;10.50;1.00;;;;;;5151781;27;20043;-73
2023/04/26 12:01:00;;;;;;;2.28;0.75;;;10.90;1.00;;;;;;5151559;27;20054;-73
2023/04/26 12:03:36;;;;;;;2.70;0.82;;;11.00;1.00;;;;;;5134315;27;20064;-72
2023/04/26 12:06:05;;;;;;;4.28;1.38;;;11.10;1.00;;;;;;5151623;27;20111;-72
2023/04/26 12:08:32;;;;;;;2.58;0.95;;;11.00;1.00;;;;;;5152127;27;20062;-72
2023/04/26 12:11:01;;;;;;;2.42;1.05;;;10.60;1.00;;;;;;5151187;27;20047;-72
2023/04/26 12:13:31;;;;;;;2.92;0.98;;;10.60;1.00;;;;;;5151331;27;20091;-72
2023/04/26 12:15:57;;;;;;;2.47;0.80;;;10.80;1.00;;;;;;5152752;27;20065;-72
2023/04/26 12:18:31;;;;;;;3.85;1.10;;;10.70;1.00;;;;;;5151417;27;20498;-73
2023/04/26 12:21:00;;;;;;;3.20;1.10;;;10.70;1.00;;;;;;5134254;27;20065;-72
2023/04/26 12:23:36;;;;;;;4.88;1.20;;;10.90;1.00;;;;;;5151296;27;20076;-72
2023/04/26 12:26:02;;;;;;;2.45;0.88;;;10.90;1.00;;;;;;5151086;27;20103;-72
2023/04/26 12:28:28;;;;;;;2.28;1.15;;;10.50;1.00;;;;;;5151108;27;20062;-72
2023/04/26 12:30:54;;;;;;;2.33;0.90;;;10.30;1.00;;;;;;5151380;27;20039;-72
2023/04/26 12:33:21;;;;;;;;;;;9.90;1.00;;;;;;5117312;27;20045;-72
2023/04/26 12:35:49;;;;;;;3.45;1.20;;;9.70;14.30;;;;;;5150786;27;20386;-72
2023/04/26 12:38:15;;;;;;;3.28;1.00;;;9.50;83.10;;;;;;5134032;27;20039;-72
2023/04/26 12:40:41;;;;;;;1.95;0.70;;;9.30;99.90;;;;;;5150912;27;20050;-73
2023/04/26 12:43:07;;;;;;;3.70;1.10;;;9.30;99.90;;;;;;5151213;27;20038;-72
2023/04/26 12:45:33;;;;;;;3.10;0.98;;;9.30;99.90;;;;;;5150772;27;20504;-73
2023/04/26 12:47:59;;;;;;;3.22;0.80;;;9.30;99.90;;;;;;5151017;27;20047;-72
2023/04/26 12:50:25;;;;;;;3.33;1.02;;;9.30;99.90;;;;;;5150624;27;20518;-73
2023/04/26 12:52:51;;;;;;;2.92;0.93;;;9.30;60.40;;;;;;5133703;27;20078;-73
2023/04/26 12:55:17;;;;;;;6.38;1.00;;;9.40;42.00;;;;;;5150630;27;20078;-73
2023/04/26 12:57:44;;;;;;;2.60;0.80;;;9.40;22.60;;;;;;5150656;27;20088;-73
2023/04/26 13:00:12;;;;;;;3.63;1.10;;;9.40;38.30;;;;;;5150908;27;20050;-72
2023/04/26 13:02:38;;;;;;;2.40;1.10;;;9.70;91.70;;;;;;5150683;27;20055;-72